SAAR

Rosario International Airport

Airport
ICAO code
SAAR
IATA Code
ROS
Summary
ICAO Region
CARSAM
ICAO Territory
Location

Rosario, Santa Fe

Serving
Rosario
Elevation
85 ft
Coordinates
32° 54' 13" S , 60° 47' 6" W
KCC
Metar
Observation
SAAR 301500Z 03005KT 330V060 CAVOK 17/11 Q1021 RMK PP000
Station
Rosario Aerodrome
Date/Time
2023-05-30 15:00:00
Wind direction
30°
Wind speed
05 kts
Lowest cloud amount
clouds and visibility OK
Temperature
17°C
Dew point
11°C
Humidity
67%
QNH
1021 hPa
Weather condition
n/a

Airport 13km west-northwest from the centre of Rosario, a city in Santa Fe province, Argentina.

Climatology

Warm oceanic climate (Köppen climate classification Cfa).

Runways

Designator Length Width Surface Rops
2/20 3000 45 CON Yes/Yes

Airport map

Aerial View

SKYbrary Partners:

Safety knowledge contributed by: